Time;durP1;ratioP1;P1;durP2;ratioP2;P2;SDS_P1;SDS_P2;PMS_P1;PMS_P2;Temp;Humidity;BMP_temperature;BMP_pressure;BME280_temperature;BME280_humidity;BME280_pressure;Samples;Min_cycle;Max_cycle;Signal;HPM_P1;HPM_P2
2022/05/03 00:00:41;;;;;;;;;;;8.20;99.90;;;;;;4993492;28;19910;-59
2022/05/03 00:03:21;;;;;;;;;;;8.00;99.90;;;;;;4994763;28;19957;-60
2022/05/03 00:06:09;;;;;;;;;;;8.10;99.90;;;;;;4990960;28;19919;-60
2022/05/03 00:08:38;;;;;;;;;;;8.20;99.90;;;;;;4993593;28;19917;-59
2022/05/03 00:11:15;;;;;;;;;;;8.10;99.90;;;;;;4992516;28;19924;-59
2022/05/03 00:13:50;;;;;;;;;;;8.10;99.90;;;;;;4992523;28;19909;-59
2022/05/03 00:16:15;;;;;;;;;;;8.20;99.90;;;;;;4992516;28;19971;-60
2022/05/03 00:18:41;;;;;;;;;;;8.10;99.90;;;;;;4992337;28;20402;-59
2022/05/03 00:21:08;;;;;;;;;;;8.00;99.90;;;;;;4990083;28;19943;-60
2022/05/03 00:23:34;;;;;;;;;;;8.00;99.90;;;;;;4991183;28;19932;-59
2022/05/03 00:25:59;;;;;;;;;;;7.80;99.90;;;;;;4994684;28;20432;-59
2022/05/03 00:28:25;;;;;;;;;;;7.80;99.90;;;;;;4990926;28;19917;-59
2022/05/03 00:30:51;;;;;;;;;;;7.60;99.90;;;;;;4992517;28;19972;-60
2022/05/03 00:33:18;;;;;;;;;;;7.50;99.90;;;;;;4994950;28;19944;-59
2022/05/03 00:35:44;;;;;;;;;;;7.40;99.90;;;;;;4993572;28;19988;-60
2022/05/03 00:38:09;;;;;;;;;;;7.50;99.90;;;;;;4992409;28;19945;-60
2022/05/03 00:40:39;;;;;;;;;;;7.40;99.90;;;;;;4994349;28;19981;-60
2022/05/03 00:43:05;;;;;;;;;;;7.40;99.90;;;;;;4996938;28;20308;-59
2022/05/03 00:45:37;;;;;;;;;;;7.40;99.90;;;;;;4993219;28;20028;-59
2022/05/03 00:48:21;;;;;;;;;;;7.30;99.90;;;;;;4996608;28;19965;-59
2022/05/03 00:50:59;;;;;;;;;;;7.20;99.90;;;;;;4990991;28;19920;-59
2022/05/03 00:53:29;;;;;;;;;;;7.20;99.90;;;;;;4991456;28;19983;-59
2022/05/03 00:55:54;;;;;;;;;;;7.10;99.90;;;;;;4992331;28;20855;-59
2022/05/03 00:58:38;;;;;;;;;;;7.00;99.90;;;;;;4995146;28;19964;-59
2022/05/03 01:01:13;;;;;;;;;;;7.00;99.90;;;;;;4989012;28;20592;-59
2022/05/03 01:03:45;;;;;;;;;;;7.10;99.90;;;;;;4992284;28;19914;-60
2022/05/03 01:06:13;;;;;;;;;;;7.00;99.90;;;;;;4985537;28;19909;-60
2022/05/03 01:08:48;;;;;;;;;;;7.00;99.90;;;;;;4984542;28;19944;-59
2022/05/03 01:11:33;;;;;;;;;;;6.90;99.90;;;;;;4989818;28;20004;-59
2022/05/03 01:14:04;;;;;;;;;;;6.80;99.90;;;;;;4988616;28;19936;-59
2022/05/03 01:16:34;;;;;;;;;;;6.80;99.90;;;;;;4990577;28;20030;-59
2022/05/03 01:19:11;;;;;;;;;;;6.80;99.90;;;;;;4987895;28;20013;-59
2022/05/03 01:21:45;;;;;;;;;;;6.80;99.90;;;;;;4991294;28;20278;-59
2022/05/03 01:24:13;;;;;;;;;;;6.80;99.90;;;;;;4986964;28;19933;-60
2022/05/03 01:26:48;;;;;;;;;;;6.80;99.90;;;;;;4990870;28;19980;-59
2022/05/03 01:29:16;;;;;;;;;;;6.70;99.90;;;;;;4987081;28;19924;-59
2022/05/03 01:31:42;;;;;;;;;;;6.60;99.90;;;;;;4988715;28;20342;-59
2022/05/03 01:34:12;;;;;;;;;;;6.50;99.90;;;;;;4987198;28;19968;-60
2022/05/03 01:36:45;;;;;;;;;;;6.50;99.90;;;;;;4983645;28;20029;-59
2022/05/03 01:39:33;;;;;;;;;;;6.50;99.90;;;;;;4989703;28;19913;-59
2022/05/03 01:42:14;;;;;;;;;;;6.70;99.90;;;;;;4989254;28;19996;-59
2022/05/03 01:44:44;;;;;;;;;;;6.70;99.90;;;;;;4989310;28;19920;-59
2022/05/03 01:47:17;;;;;;;;;;;6.50;99.90;;;;;;4991039;28;19913;-59
2022/05/03 01:52:38;;;;;;;;;;;6.10;99.90;;;;;;4988658;28;20480;-59
2022/05/03 01:55:07;;;;;;;;;;;6.20;99.90;;;;;;4990231;28;19949;-59
2022/05/03 01:57:45;;;;;;;;;;;6.30;99.90;;;;;;4987839;28;20013;-59
2022/05/03 02:00:11;;;;;;;;;;;6.20;99.90;;;;;;4986270;28;19967;-59
2022/05/03 02:02:59;;;;;;;;;;;6.10;99.90;;;;;;4990054;28;20354;-59
2022/05/03 02:05:24;;;;;;;;;;;6.00;99.90;;;;;;4991511;28;19910;-59
2022/05/03 02:07:55;;;;;;;;;;;6.00;99.90;;;;;;4990002;28;19917;-60
2022/05/03 02:10:21;;;;;;;;;;;6.00;99.90;;;;;;4986197;28;19913;-59
2022/05/03 02:12:53;;;;;;;;;;;6.00;99.90;;;;;;4986525;28;20270;-59
2022/05/03 02:15:38;;;;;;;;;;;5.90;99.90;;;;;;4989318;28;19914;-59
2022/05/03 02:18:05;;;;;;;;;;;5.80;99.90;;;;;;4989729;28;20388;-59
2022/05/03 02:20:42;;;;;;;;;;;5.80;99.90;;;;;;4987257;28;20417;-60
2022/05/03 02:23:17;;;;;;;;;;;5.80;99.90;;;;;;4986315;28;20164;-59
2022/05/03 02:26:02;;;;;;;;;;;6.10;99.90;;;;;;4989269;28;19921;-59
2022/05/03 02:28:48;;;;;;;;;;;6.00;99.90;;;;;;4981431;28;19922;-60
2022/05/03 02:31:17;;;;;;;;;;;6.00;99.90;;;;;;4986033;28;19921;-59
2022/05/03 02:33:55;;;;;;;;;;;5.90;99.90;;;;;;4989296;28;19925;-59
2022/05/03 02:36:23;;;;;;;;;;;5.90;99.90;;;;;;4988014;28;19913;-59
2022/05/03 02:38:52;;;;;;;;;;;5.90;99.90;;;;;;4982612;28;19918;-59
2022/05/03 02:41:19;;;;;;;;;;;5.80;99.90;;;;;;4989599;28;20004;-59
2022/05/03 02:43:46;;;;;;;;;;;5.80;99.90;;;;;;4989692;28;19941;-60
2022/05/03 02:46:14;;;;;;;;;;;5.80;99.90;;;;;;4990410;28;19913;-59
2022/05/03 02:48:51;;;;;;;;;;;5.70;99.90;;;;;;4987323;28;19917;-59
2022/05/03 02:51:20;;;;;;;;;;;5.60;99.90;;;;;;4987317;28;19925;-59
2022/05/03 02:53:54;;;;;;;;;;;5.60;99.90;;;;;;4986652;28;19918;-60
2022/05/03 02:56:28;;;;;;;;;;;5.70;99.90;;;;;;4986076;28;19920;-59
2022/05/03 02:59:05;;;;;;;;;;;5.70;99.90;;;;;;4979623;28;19960;-59
2022/05/03 03:01:54;;;;;;;;;;;5.70;99.90;;;;;;4981448;28;20320;-59
2022/05/03 03:04:23;;;;;;;;;;;6.00;99.90;;;;;;4986303;28;19927;-59
2022/05/03 03:06:51;;;;;;;;;;;6.20;99.90;;;;;;4984250;28;20393;-59
2022/05/03 03:09:20;;;;;;;;;;;6.30;99.90;;;;;;4986205;28;19914;-60
2022/05/03 03:11:55;;;;;;;;;;;6.10;99.90;;;;;;4985376;28;19914;-59
2022/05/03 03:14:33;;;;;;;;;;;6.00;99.90;;;;;;4986050;28;19910;-59
2022/05/03 03:17:05;;;;;;;;;;;6.30;99.90;;;;;;4983151;28;19914;-59
2022/05/03 03:19:50;;;;;;;;;;;6.30;99.90;;;;;;4996609;28;19937;-59
2022/05/03 03:22:15;;;;;;;;;;;6.30;99.90;;;;;;4982978;28;19913;-59
2022/05/03 03:24:41;;;;;;;;;;;6.20;99.90;;;;;;4986328;28;20422;-59
2022/05/03 03:27:11;;;;;;;;;;;6.00;99.90;;;;;;4986128;28;19918;-59
2022/05/03 03:29:37;;;;;;;;;;;6.00;99.90;;;;;;4982806;28;19924;-59
2022/05/03 03:32:03;;;;;;;;;;;6.00;99.90;;;;;;4987084;28;20443;-59
2022/05/03 03:34:30;;;;;;;;;;;6.00;99.90;;;;;;4987391;28;19914;-60
2022/05/03 03:37:01;;;;;;;;;;;6.00;99.90;;;;;;4986769;28;19917;-59
2022/05/03 03:39:30;;;;;;;;;;;6.00;99.90;;;;;;4985726;28;19906;-59
2022/05/03 03:41:58;;;;;;;;;;;6.00;99.90;;;;;;4981776;28;19977;-59
2022/05/03 03:44:24;;;;;;;;;;;6.10;99.90;;;;;;4985716;28;19910;-59
2022/05/03 03:46:50;;;;;;;;;;;6.00;99.90;;;;;;4984788;28;19914;-60
2022/05/03 03:49:15;;;;;;;;;;;6.00;99.90;;;;;;4985298;28;19926;-60
2022/05/03 03:51:41;;;;;;;;;;;5.90;99.90;;;;;;4985954;28;19941;-59
2022/05/03 03:54:07;;;;;;;;;;;5.90;99.90;;;;;;4985551;28;19910;-59
2022/05/03 03:56:33;;;;;;;;;;;5.90;99.90;;;;;;4985520;28;19921;-59
2022/05/03 03:58:58;;;;;;;;;;;5.80;99.90;;;;;;4979622;28;19925;-59
2022/05/03 04:01:25;;;;;;;;;;;5.80;99.90;;;;;;4985607;28;20305;-59
2022/05/03 04:03:51;;;;;;;;;;;5.70;99.90;;;;;;4986783;28;20259;-58
2022/05/03 04:06:17;;;;;;;;;;;5.70;99.90;;;;;;4986528;28;19916;-59
2022/05/03 04:08:42;;;;;;;;;;;5.60;99.90;;;;;;4984883;28;20334;-59
2022/05/03 04:11:17;;;;;;;;;;;5.60;99.90;;;;;;4984290;28;20289;-59
2022/05/03 04:13:43;;;;;;;;;;;5.80;99.90;;;;;;4980541;28;19913;-58
2022/05/03 04:16:09;;;;;;;;;;;5.90;99.90;;;;;;4983453;28;20577;-58
2022/05/03 04:18:47;;;;;;;;;;;5.70;99.90;;;;;;4986139;28;20016;-58
2022/05/03 04:21:16;;;;;;;;;;;5.70;99.90;;;;;;4982924;28;19957;-58
2022/05/03 04:23:42;;;;;;;;;;;5.60;99.90;;;;;;4984030;28;20007;-58
2022/05/03 04:26:09;;;;;;;;;;;5.60;99.90;;;;;;4984835;28;20488;-58
2022/05/03 04:28:35;;;;;;;;;;;5.70;99.90;;;;;;4982677;28;20345;-58
2022/05/03 04:31:00;;;;;;;;;;;5.60;99.90;;;;;;4982160;28;19918;-58
2022/05/03 04:33:26;;;;;;;;;;;5.50;99.90;;;;;;4983401;28;19922;-58
2022/05/03 04:35:51;;;;;;;;;;;5.50;99.90;;;;;;4981126;28;19914;-58
2022/05/03 04:38:17;;;;;;;;;;;5.60;99.90;;;;;;4984377;28;19909;-58
2022/05/03 04:40:42;;;;;;;;;;;5.60;99.90;;;;;;4987552;28;19913;-58
2022/05/03 04:43:08;;;;;;;;;;;5.70;99.90;;;;;;4989863;28;19956;-58
2022/05/03 04:45:33;;;;;;;;;;;5.70;99.90;;;;;;4988951;28;19910;-58
2022/05/03 04:47:59;;;;;;;;;;;5.60;99.90;;;;;;4988313;28;19929;-59
2022/05/03 04:50:24;;;;;;;;;;;5.70;99.90;;;;;;4987784;28;19949;-59
2022/05/03 04:52:51;;;;;;;;;;;5.70;99.90;;;;;;4986671;28;20374;-58
2022/05/03 04:55:16;;;;;;;;;;;5.80;99.90;;;;;;4988844;28;19914;-58
2022/05/03 04:57:42;;;;;;;;;;;6.00;99.90;;;;;;4989735;28;19917;-58
2022/05/03 05:00:07;;;;;;;;;;;6.10;99.90;;;;;;4985537;28;19913;-58
2022/05/03 05:02:33;;;;;;;;;;;6.20;99.90;;;;;;4987633;28;19964;-59
2022/05/03 05:04:58;;;;;;;;;;;6.20;99.90;;;;;;4988806;28;19917;-58
2022/05/03 05:07:24;;;;;;;;;;;6.30;99.90;;;;;;4984757;28;19913;-58
2022/05/03 05:12:33;;;;;;;;;;;6.40;99.90;;;;;;4986808;28;20528;-58
2022/05/03 05:14:59;;;;;;;;;;;6.50;99.90;;;;;;4984735;28;19910;-58
2022/05/03 05:17:24;;;;;;;;;;;6.60;99.90;;;;;;4983847;28;19961;-59
2022/05/03 05:19:50;;;;;;;;;;;6.70;99.90;;;;;;4986451;28;20351;-58
2022/05/03 05:22:15;;;;;;;;;;;6.90;99.90;;;;;;4985986;28;20447;-58
2022/05/03 05:24:41;;;;;;;;;;;6.90;99.90;;;;;;4984338;28;19913;-58
2022/05/03 05:27:06;;;;;;;;;;;7.00;99.90;;;;;;4986488;28;19930;-58
2022/05/03 05:29:33;;;;;;;;;;;7.10;99.90;;;;;;4986124;28;19960;-58
2022/05/03 05:31:58;;;;;;;;;;;7.20;99.90;;;;;;4994334;28;19942;-58
2022/05/03 05:34:24;;;;;;;;;;;7.20;99.90;;;;;;4981187;28;19913;-59
2022/05/03 05:36:49;;;;;;;;;;;7.30;99.90;;;;;;4986739;28;19913;-58
2022/05/03 05:39:15;;;;;;;;;;;7.60;99.90;;;;;;4988218;28;19924;-58
2022/05/03 05:41:40;;;;;;;;;;;7.70;99.90;;;;;;4983060;28;20085;-59
2022/05/03 05:44:06;;;;;;;;;;;7.70;99.90;;;;;;4984873;28;19910;-58
2022/05/03 05:46:31;;;;;;;;;;;7.90;99.90;;;;;;4984252;28;20448;-57
2022/05/03 05:48:57;;;;;;;;;;;7.90;99.90;;;;;;4984003;28;19928;-58
2022/05/03 05:51:22;;;;;;;;;;;8.00;99.90;;;;;;5010154;28;20417;-59
2022/05/03 05:53:47;;;;;;;;;;;8.10;99.90;;;;;;4983891;28;19933;-59
2022/05/03 05:56:14;;;;;;;;;;;8.30;99.90;;;;;;4985863;28;19918;-59
2022/05/03 05:58:39;;;;;;;;;;;8.30;99.90;;;;;;4981644;28;19917;-59
2022/05/03 06:01:05;;;;;;;;;;;8.40;99.90;;;;;;4987235;28;19922;-59
2022/05/03 06:03:32;;;;;;;;;;;8.60;99.90;;;;;;4983981;28;19914;-59
2022/05/03 06:05:58;;;;;;;;;;;8.60;99.90;;;;;;4983174;28;20297;-59
2022/05/03 06:08:24;;;;;;;;;;;8.70;99.90;;;;;;4986343;28;19917;-59
2022/05/03 06:10:49;;;;;;;;;;;8.90;99.90;;;;;;4986422;28;19913;-60
2022/05/03 06:13:15;;;;;;;;;;;9.00;99.90;;;;;;4986708;28;19972;-59
2022/05/03 06:15:41;;;;;;;;;;;8.90;99.90;;;;;;4982101;28;20079;-59
2022/05/03 06:18:10;;;;;;;;;;;9.10;99.90;;;;;;4984509;28;19921;-59
2022/05/03 06:20:36;;;;;;;;;;;9.20;99.90;;;;;;4983989;28;19937;-59
2022/05/03 06:23:02;;;;;;;;;;;9.30;99.90;;;;;;4982671;28;20313;-59
2022/05/03 06:25:28;;;;;;;;;;;9.20;99.90;;;;;;4985337;28;20611;-59
2022/05/03 06:27:53;;;;;;;;;;;9.50;99.90;;;;;;4983557;28;19917;-59
2022/05/03 06:30:19;;;;;;;;;;;9.50;99.90;;;;;;4982643;28;20056;-59
2022/05/03 06:32:45;;;;;;;;;;;9.60;99.90;;;;;;4985297;28;19957;-59
2022/05/03 06:35:11;;;;;;;;;;;9.70;99.90;;;;;;4985856;28;19959;-60
2022/05/03 06:37:37;;;;;;;;;;;9.80;99.90;;;;;;4984040;28;19913;-60
2022/05/03 06:40:06;;;;;;;;;;;10.00;99.90;;;;;;4983818;28;19913;-59
2022/05/03 06:42:34;;;;;;;;;;;9.90;99.90;;;;;;4987639;28;19914;-59
2022/05/03 06:44:59;;;;;;;;;;;9.90;99.90;;;;;;4985633;28;19988;-60
2022/05/03 06:47:26;;;;;;;;;;;10.10;99.90;;;;;;4979068;28;20445;-60
2022/05/03 06:49:52;;;;;;;;;;;10.20;99.90;;;;;;4980795;28;19936;-59
2022/05/03 06:52:19;;;;;;;;;;;10.30;99.90;;;;;;4983238;28;20385;-59
2022/05/03 06:54:45;;;;;;;;;;;10.40;99.90;;;;;;4982309;28;20018;-59
2022/05/03 06:57:10;;;;;;;;;;;10.40;99.90;;;;;;4982832;28;19921;-60
2022/05/03 06:59:36;;;;;;;;;;;10.40;99.90;;;;;;4985011;28;19917;-59
2022/05/03 07:02:01;;;;;;;;;;;10.50;99.90;;;;;;4983186;28;20040;-59
2022/05/03 07:04:27;;;;;;;;;;;10.70;99.90;;;;;;4980083;28;20436;-59
2022/05/03 07:06:52;;;;;;;;;;;10.80;99.90;;;;;;4986370;28;20019;-59
2022/05/03 07:09:18;;;;;;;;;;;10.90;99.90;;;;;;4983787;28;20028;-60
2022/05/03 07:11:44;;;;;;;;;;;10.90;99.90;;;;;;4985739;28;19909;-59
2022/05/03 07:14:09;;;;;;;;;;;11.00;99.90;;;;;;4981315;28;19929;-59
2022/05/03 07:16:35;;;;;;;;;;;11.30;99.90;;;;;;4982100;28;19917;-59
2022/05/03 07:24:33;;;;;;;;;;;11.40;99.90;;;;;;5001187;28;19952;-59
2022/05/03 07:26:58;;;;;;;;;;;11.40;99.90;;;;;;4982635;28;20345;-60
2022/05/03 07:29:24;;;;;;;;;;;11.50;99.90;;;;;;4981339;28;19918;-59
2022/05/03 07:31:51;;;;;;;;;;;11.60;99.90;;;;;;4982184;28;20072;-59
2022/05/03 07:34:16;;;;;;;;;;;11.50;99.90;;;;;;4984021;28;20653;-60
2022/05/03 07:36:42;;;;;;;;;;;11.70;99.90;;;;;;4987097;28;19906;-60
2022/05/03 07:39:07;;;;;;;;;;;11.70;99.90;;;;;;4984748;28;19906;-60
2022/05/03 07:41:33;;;;;;;;;;;11.90;99.90;;;;;;4982318;28;19910;-60
2022/05/03 07:43:58;;;;;;;;;;;12.00;99.90;;;;;;4984482;28;19910;-59
2022/05/03 07:46:24;;;;;;;;;;;12.10;99.90;;;;;;4985889;28;19906;-59
2022/05/03 07:48:49;;;;;;;;;;;11.90;99.90;;;;;;4983926;28;19932;-59
2022/05/03 07:51:17;;;;;;;;;;;12.10;99.90;;;;;;4982610;28;20530;-59
2022/05/03 07:53:42;;;;;;;;;;;12.10;99.90;;;;;;4983617;28;20281;-59
2022/05/03 07:56:10;;;;;;;;;;;12.20;99.90;;;;;;4986253;28;19910;-59
2022/05/03 07:58:36;;;;;;;;;;;12.00;99.90;;;;;;4982442;28;19929;-59
2022/05/03 08:01:01;;;;;;;;;;;12.30;99.90;;;;;;4983127;28;19918;-59
2022/05/03 08:03:27;;;;;;;;;;;12.50;99.90;;;;;;4982847;28;19905;-59
2022/05/03 08:05:52;;;;;;;;;;;12.70;99.90;;;;;;4981066;28;19969;-61
2022/05/03 08:08:18;;;;;;;;;;;12.90;99.90;;;;;;4980837;28;20297;-60
2022/05/03 08:10:45;;;;;;;;;;;13.10;99.90;;;;;;4984831;28;19964;-59
2022/05/03 08:13:11;;;;;;;;;;;13.20;99.90;;;;;;4982870;28;19924;-60
2022/05/03 08:15:37;;;;;;;;;;;13.80;99.60;;;;;;4987979;28;20362;-60
2022/05/03 08:18:03;;;;;;;;;;;14.10;97.40;;;;;;4988808;28;19910;-59
2022/05/03 08:20:28;;;;;;;;;;;13.90;96.10;;;;;;4989602;28;19910;-60
2022/05/03 08:22:54;;;;;;;;;;;14.20;96.10;;;;;;4986924;28;19936;-59
2022/05/03 08:25:19;;;;;;;;;;;14.50;95.10;;;;;;4985513;28;19909;-60
2022/05/03 08:27:45;;;;;;;;;;;14.50;96.40;;;;;;4989428;28;19918;-59
2022/05/03 08:30:11;;;;;;;;;;;15.00;94.20;;;;;;4985644;28;19921;-60
2022/05/03 08:32:36;;;;;;;;;;;15.70;94.40;;;;;;4987758;28;20785;-60
2022/05/03 08:35:02;;;;;;;;;;;16.20;92.10;;;;;;4988171;28;20365;-59
2022/05/03 08:42:56;;;;;;;;;;;15.80;91.00;;;;;;4986249;28;20336;-60
2022/05/03 08:45:21;;;;;;;;;;;16.40;92.50;;;;;;4987769;28;19909;-60
2022/05/03 08:47:48;;;;;;;;;;;15.90;91.70;;;;;;4987469;28;19988;-60
2022/05/03 08:50:18;;;;;;;;;;;16.30;91.00;;;;;;4987410;28;19905;-60
2022/05/03 08:52:47;;;;;;;;;;;16.60;89.60;;;;;;4988150;28;19913;-59
2022/05/03 08:55:13;;;;;;;;;;;16.60;89.60;;;;;;4987023;28;20639;-60
2022/05/03 08:57:40;;;;;;;;;;;15.90;90.00;;;;;;4989585;28;19910;-60
2022/05/03 09:00:06;;;;;;;;;;;16.20;88.80;;;;;;4984364;28;19957;-60
2022/05/03 09:02:33;;;;;;;;;;;17.20;84.00;;;;;;4988614;28;19957;-60
2022/05/03 09:04:59;;;;;;;;;;;18.10;81.40;;;;;;4985604;28;19964;-59
2022/05/03 09:07:25;;;;;;;;;;;17.50;81.80;;;;;;4988090;28;19992;-60
2022/05/03 09:09:51;;;;;;;;;;;17.10;80.90;;;;;;4987518;28;19914;-60
2022/05/03 09:12:30;;;;;;;;;;;17.50;80.90;;;;;;4987505;28;19932;-60
2022/05/03 09:14:56;;;;;;;;;;;19.50;78.80;;;;;;4987421;28;19918;-60
2022/05/03 09:17:42;;;;;;;;;;;20.20;76.00;;;;;;4986179;28;19981;-60
2022/05/03 09:25:53;;;;;;;;;;;17.60;78.10;;;;;;4986191;28;19917;-60
2022/05/03 09:28:19;;;;;;;;;;;19.40;71.80;;;;;;4986440;28;19913;-60
2022/05/03 09:30:46;;;;;;;;;;;19.30;72.10;;;;;;4985193;28;20547;-60
2022/05/03 09:33:15;;;;;;;;;;;20.40;71.60;;;;;;4987533;28;19925;-60
2022/05/03 09:35:41;;;;;;;;;;;19.00;72.70;;;;;;4987290;28;19971;-60
2022/05/03 09:38:06;;;;;;;;;;;17.70;75.40;;;;;;4985887;28;19906;-59
2022/05/03 09:40:36;;;;;;;;;;;18.10;74.80;;;;;;4987883;28;19945;-60
2022/05/03 09:43:05;;;;;;;;;;;17.50;75.10;;;;;;4987807;28;19910;-59
2022/05/03 09:45:31;;;;;;;;;;;17.80;71.50;;;;;;4985786;28;20354;-60
2022/05/03 09:47:59;;;;;;;;;;;18.50;74.00;;;;;;4985552;28;19972;-60
2022/05/03 09:50:29;;;;;;;;;;;18.80;71.20;;;;;;4981640;28;19976;-60
2022/05/03 09:52:55;;;;;;;;;;;18.50;71.90;;;;;;4984442;28;19920;-60
2022/05/03 09:55:29;;;;;;;;;;;17.40;72.20;;;;;;4986151;28;19909;-60
2022/05/03 09:57:56;;;;;;;;;;;17.70;72.10;;;;;;4981846;28;19920;-61
2022/05/03 10:00:22;;;;;;;;;;;18.60;71.60;;;;;;4982494;28;20357;-60
2022/05/03 10:02:47;;;;;;;;;;;20.20;70.80;;;;;;4984550;28;19913;-60
2022/05/03 10:05:13;;;;;;;;;;;19.90;67.10;;;;;;4986229;28;19910;-60
2022/05/03 10:07:45;;;;;;;;;;;19.60;66.40;;;;;;4985409;28;20325;-60
2022/05/03 10:10:11;;;;;;;;;;;20.20;68.70;;;;;;4983148;28;19910;-61
2022/05/03 10:12:37;;;;;;;;;;;20.30;69.40;;;;;;4978994;28;19920;-60
2022/05/03 10:15:03;;;;;;;;;;;21.50;66.30;;;;;;4984678;28;19913;-60
2022/05/03 10:20:38;;;;;;;;;;;20.50;67.10;;;;;;4987681;28;19975;-60
2022/05/03 10:23:04;;;;;;;;;;;20.90;67.10;;;;;;4984844;28;19913;-60
2022/05/03 10:25:48;;;;;;;;;;;19.80;70.30;;;;;;4985437;28;19910;-60
2022/05/03 10:28:14;;;;;;;;;;;20.30;70.60;;;;;;4982167;28;19917;-60
2022/05/03 10:30:59;;;;;;;;;;;21.30;69.20;;;;;;4983634;28;19914;-60
2022/05/03 10:33:26;;;;;;;;;;;22.40;66.20;;;;;;4981871;28;19984;-60
2022/05/03 10:35:52;;;;;;;;;;;21.60;66.80;;;;;;4984080;28;19919;-60
2022/05/03 10:38:37;;;;;;;;;;;21.80;67.00;;;;;;4990958;28;19910;-60
2022/05/03 10:41:05;;;;;;;;;;;20.60;67.50;;;;;;4986900;28;19914;-60
2022/05/03 10:43:30;;;;;;;;;;;20.00;69.80;;;;;;4985122;28;19914;-60
2022/05/03 10:45:57;;;;;;;;;;;18.40;70.30;;;;;;4980197;28;20653;-60
2022/05/03 10:48:29;;;;;;;;;;;19.40;70.10;;;;;;4983868;28;19913;-61
2022/05/03 10:51:00;;;;;;;;;;;20.40;72.20;;;;;;4991855;28;19997;-60
2022/05/03 10:53:27;;;;;;;;;;;20.70;67.60;;;;;;4987769;28;19910;-60
2022/05/03 10:56:03;;;;;;;;;;;22.50;65.50;;;;;;4986432;28;19917;-60
2022/05/03 10:58:31;;;;;;;;;;;22.60;64.30;;;;;;4988456;28;19909;-60
2022/05/03 11:01:16;;;;;;;;;;;21.00;68.60;;;;;;4983826;28;20004;-60
2022/05/03 11:03:48;;;;;;;;;;;19.90;69.20;;;;;;4991565;28;20012;-60
2022/05/03 11:06:19;;;;;;;;;;;21.10;66.40;;;;;;4987693;28;19910;-60
2022/05/03 11:08:57;;;;;;;;;;;20.90;69.20;;;;;;4988030;28;19917;-60
2022/05/03 11:11:39;;;;;;;;;;;21.00;66.10;;;;;;4986674;28;19920;-60
2022/05/03 11:14:21;;;;;;;;;;;21.00;66.90;;;;;;4981969;28;19914;-60
2022/05/03 11:16:51;;;;;;;;;;;21.10;66.20;;;;;;4995658;28;19914;-60
2022/05/03 11:19:17;;;;;;;;;;;21.10;67.50;;;;;;4976857;28;19925;-60
2022/05/03 11:21:45;;;;;;;;;;;20.00;67.80;;;;;;4978708;28;19949;-60
2022/05/03 11:24:17;;;;;;;;;;;19.30;69.70;;;;;;4981347;28;19971;-61
2022/05/03 11:26:43;;;;;;;;;;;21.30;68.40;;;;;;4977605;28;20449;-61
2022/05/03 11:29:11;;;;;;;;;;;22.50;64.80;;;;;;4983137;28;19956;-60
2022/05/03 11:31:36;;;;;;;;;;;23.70;64.20;;;;;;4982599;28;19921;-61
2022/05/03 11:34:03;;;;;;;;;;;22.40;63.50;;;;;;4986431;28;19916;-60
2022/05/03 11:36:29;;;;;;;;;;;21.00;65.60;;;;;;4982210;28;19918;-60
2022/05/03 11:38:55;;;;;;;;;;;20.50;65.90;;;;;;4983709;28;20032;-60
2022/05/03 11:41:21;;;;;;;;;;;22.40;64.50;;;;;;4987440;28;19914;-60
2022/05/03 11:43:47;;;;;;;;;;;23.70;61.10;;;;;;4982338;28;19936;-60
2022/05/03 11:46:16;;;;;;;;;;;22.00;66.30;;;;;;4982130;28;19913;-60
2022/05/03 11:48:42;;;;;;;;;;;22.50;64.30;;;;;;4982456;28;19917;-60
2022/05/03 11:56:37;;;;;;;;;;;22.80;62.60;;;;;;4984553;28;19972;-60
2022/05/03 11:59:03;;;;;;;;;;;22.30;61.60;;;;;;4981126;28;20578;-60
2022/05/03 12:01:32;;;;;;;;;;;22.40;64.90;;;;;;4979487;28;20277;-60
2022/05/03 12:03:59;;;;;;;;;;;22.90;62.40;;;;;;4985817;28;20001;-60
2022/05/03 12:06:32;;;;;;;;;;;23.70;60.20;;;;;;4985364;28;19960;-60
2022/05/03 12:08:58;;;;;;;;;;;24.10;59.30;;;;;;4979701;28;19925;-60
2022/05/03 12:11:26;;;;;;;;;;;24.60;58.80;;;;;;4994076;28;19984;-61
2022/05/03 12:13:53;;;;;;;;;;;24.90;59.50;;;;;;4984727;28;19910;-60
2022/05/03 12:16:23;;;;;;;;;;;25.00;57.60;;;;;;4980068;28;19914;-61
2022/05/03 12:18:49;;;;;;;;;;;;;;;;;;4984701;28;19968;-61
2022/05/03 12:21:14;;;;;;;;;;;28.00;57.40;;;;;;4985742;28;19909;-60
2022/05/03 12:23:47;;;;;;;;;;;25.40;58.60;;;;;;4987264;28;20013;-60
2022/05/03 12:26:16;;;;;;;;;;;23.20;57.90;;;;;;4995041;28;19914;-60
2022/05/03 12:28:51;;;;;;;;;;;22.80;60.70;;;;;;4975355;28;19998;-60
2022/05/03 12:31:19;;;;;;;;;;;22.70;61.50;;;;;;4984977;28;19980;-61
2022/05/03 12:33:57;;;;;;;;;;;23.90;61.00;;;;;;4985094;28;19927;-60
2022/05/03 12:36:26;;;;;;;;;;;23.80;58.80;;;;;;4983867;28;20373;-60
2022/05/03 12:38:52;;;;;;;;;;;23.40;59.60;;;;;;4981543;28;20292;-60
2022/05/03 12:41:22;;;;;;;;;;;23.60;61.20;;;;;;4983684;28;19914;-60
2022/05/03 12:43:58;;;;;;;;;;;23.90;59.60;;;;;;4982707;28;20366;-60
2022/05/03 12:46:28;;;;;;;;;;;22.10;61.20;;;;;;4982501;28;20254;-60
2022/05/03 12:48:53;;;;;;;;;;;22.10;61.90;;;;;;4979997;28;20270;-60
2022/05/03 12:51:19;;;;;;;;;;;22.60;60.80;;;;;;4983765;28;19909;-61
2022/05/03 12:53:46;;;;;;;;;;;23.90;59.20;;;;;;4983448;28;19937;-61
2022/05/03 12:58:58;;;;;;;;;;;26.80;58.60;;;;;;4982205;28;19928;-61
2022/05/03 13:01:23;;;;;;;;;;;25.80;55.70;;;;;;4987116;28;19913;-61
2022/05/03 13:03:49;;;;;;;;;;;25.60;56.80;;;;;;4988058;28;19909;-61
2022/05/03 13:06:15;;;;;;;;;;;25.40;58.60;;;;;;4987403;28;20125;-60
2022/05/03 13:08:40;;;;;;;;;;;25.80;56.50;;;;;;4987992;28;20012;-59
2022/05/03 13:11:06;;;;;;;;;;;24.70;58.00;;;;;;4988349;28;19916;-61
2022/05/03 13:13:31;;;;;;;;;;;23.80;58.90;;;;;;4983791;28;19913;-60
2022/05/03 13:15:57;;;;;;;;;;;23.10;60.30;;;;;;4987522;28;20237;-60
2022/05/03 13:18:22;;;;;;;;;;;23.80;58.40;;;;;;4986766;28;19913;-60
2022/05/03 13:20:48;;;;;;;;;;;23.10;59.40;;;;;;4986248;28;19913;-60
2022/05/03 13:23:14;;;;;;;;;;;25.70;57.00;;;;;;4985702;28;19913;-61
2022/05/03 13:25:40;;;;;;;;;;;25.20;57.00;;;;;;4987065;28;19914;-60
2022/05/03 13:28:06;;;;;;;;;;;24.60;56.90;;;;;;4986784;28;19918;-61
2022/05/03 13:30:34;;;;;;;;;;;26.40;57.00;;;;;;4984959;28;19914;-60
2022/05/03 13:33:00;;;;;;;;;;;26.00;54.70;;;;;;4985091;28;20398;-61
2022/05/03 13:40:55;;;;;;;;;;;24.50;57.90;;;;;;4984369;28;19917;-61
2022/05/03 13:43:22;;;;;;;;;;;25.70;57.40;;;;;;4988684;28;19967;-61
2022/05/03 13:45:48;;;;;;;;;;;24.40;57.50;;;;;;4987543;28;20031;-61
2022/05/03 13:48:13;;;;;;;;;;;23.70;59.50;;;;;;4986405;28;20245;-60
2022/05/03 13:50:40;;;;;;;;;;;24.90;58.50;;;;;;4984160;28;19971;-61
2022/05/03 13:53:07;;;;;;;;;;;24.20;57.10;;;;;;4988355;28;19928;-60
2022/05/03 13:55:33;;;;;;;;;;;26.50;55.20;;;;;;4986733;28;19977;-61
2022/05/03 13:57:59;;;;;;;;;;;23.10;59.50;;;;;;5014509;28;20321;-61
2022/05/03 14:00:24;;;;;;;;;;;25.30;56.50;;;;;;4983326;28;19913;-61
2022/05/03 14:02:50;;;;;;;;;;;26.20;55.50;;;;;;4982969;28;19926;-60
2022/05/03 14:05:15;;;;;;;;;;;25.90;55.30;;;;;;4978485;28;20050;-60
2022/05/03 14:07:43;;;;;;;;;;;27.00;52.90;;;;;;4980605;28;19913;-60
2022/05/03 14:10:09;;;;;;;;;;;27.10;54.60;;;;;;4983764;28;20289;-61
2022/05/03 14:12:35;;;;;;;;;;;24.70;55.60;;;;;;4985532;28;19920;-61
2022/05/03 14:15:00;;;;;;;;;;;25.50;56.00;;;;;;4985692;28;20260;-60
2022/05/03 14:17:27;;;;;;;;;;;25.40;55.60;;;;;;4985545;28;20380;-61
2022/05/03 14:19:52;;;;;;;;;;;26.80;55.50;;;;;;4986914;28;19910;-61
2022/05/03 14:22:19;;;;;;;;;;;27.50;54.10;;;;;;4988843;28;19972;-60
2022/05/03 14:24:45;;;;;;;;;;;26.60;52.80;;;;;;4989142;28;19910;-60
2022/05/03 14:27:11;;;;;;;;;;;25.60;53.80;;;;;;4987257;28;19963;-61
2022/05/03 14:29:36;;;;;;;;;;;26.30;54.60;;;;;;4986484;28;19922;-60
2022/05/03 14:32:02;;;;;;;;;;;25.00;55.40;;;;;;4987587;28;19926;-61
2022/05/03 14:34:28;;;;;;;;;;;25.90;54.30;;;;;;4982909;28;20462;-61
2022/05/03 14:36:53;;;;;;;;;;;24.60;55.50;;;;;;4985465;28;20048;-61
2022/05/03 14:39:19;;;;;;;;;;;25.50;55.50;;;;;;4987656;28;19936;-61
2022/05/03 14:41:44;;;;;;;;;;;26.20;54.40;;;;;;4986315;28;19925;-61
2022/05/03 14:44:10;;;;;;;;;;;24.60;55.60;;;;;;4986189;28;20557;-60
2022/05/03 14:46:35;;;;;;;;;;;23.50;58.10;;;;;;4983809;28;20075;-62
2022/05/03 14:49:01;;;;;;;;;;;23.30;58.10;;;;;;4985646;28;20317;-60
2022/05/03 14:51:26;;;;;;;;;;;23.90;57.90;;;;;;4981728;28;19914;-61
2022/05/03 14:53:52;;;;;;;;;;;23.00;58.70;;;;;;4983406;28;19963;-61
2022/05/03 15:04:30;;;;;;;;;;;24.70;55.20;;;;;;4983374;28;19916;-60
2022/05/03 15:06:55;;;;;;;;;;;23.50;58.20;;;;;;4986181;28;20016;-60
2022/05/03 15:09:21;;;;;;;;;;;26.40;55.90;;;;;;4982927;28;19928;-60
2022/05/03 15:11:46;;;;;;;;;;;27.00;54.30;;;;;;4981017;28;19910;-60
2022/05/03 15:14:12;;;;;;;;;;;24.60;56.30;;;;;;4985333;28;19909;-60
2022/05/03 15:16:37;;;;;;;;;;;23.40;57.80;;;;;;4971452;28;20297;-61